Time;durP1;ratioP1;P1;durP2;ratioP2;P2;SDS_P1;SDS_P2;PMS_P1;PMS_P2;Temp;Humidity;BMP_temperature;BMP_pressure;BME280_temperature;BME280_humidity;BME280_pressure;Samples;Min_cycle;Max_cycle;Signal;HPM_P1;HPM_P2
2021/08/29 00:00:20;;;;;;;10.25;3.90;;;;;;;15.49;100.00;102101.22;2613895;31;20458;-68
2021/08/29 00:02:48;;;;;;;8.97;3.43;;;;;;;15.38;100.00;102111.19;2617465;36;20026;-70
2021/08/29 00:05:17;;;;;;;13.70;4.07;;;;;;;15.38;100.00;102105.78;2615241;36;20379;-65
2021/08/29 00:07:45;;;;;;;15.53;4.60;;;;;;;15.34;100.00;102103.47;2617759;31;20046;-66
2021/08/29 00:10:14;;;;;;;12.43;4.30;;;;;;;15.35;100.00;102097.06;2617511;36;20118;-65
2021/08/29 00:12:42;;;;;;;12.18;4.25;;;;;;;15.42;100.00;102096.38;2615055;36;20030;-66
2021/08/29 00:15:14;;;;;;;9.83;3.63;;;;;;;15.42;100.00;102095.53;2617588;36;20113;-64
2021/08/29 00:17:42;;;;;;;11.70;4.55;;;;;;;15.45;100.00;102094.41;2618478;31;20483;-65
2021/08/29 00:20:12;;;;;;;9.23;4.13;;;;;;;15.42;100.00;102090.09;2595181;31;20556;-68
2021/08/29 00:22:40;;;;;;;9.13;3.53;;;;;;;15.45;100.00;102083.53;2617790;36;20567;-68
2021/08/29 00:25:10;;;;;;;12.27;4.07;;;;;;;15.47;100.00;102093.22;2617640;36;20154;-65
2021/08/29 00:27:38;;;;;;;7.78;3.58;;;;;;;15.44;100.00;102090.81;2606620;36;20073;-70
2021/08/29 00:30:07;;;;;;;11.20;4.28;;;;;;;15.42;100.00;102080.09;2617582;36;20158;-67
2021/08/29 00:32:38;;;;;;;13.05;4.30;;;;;;;15.47;100.00;102090.53;2617468;36;20085;-67
2021/08/29 00:35:07;;;;;;;10.70;4.20;;;;;;;15.53;100.00;102091.81;2617714;36;20030;-65
2021/08/29 00:37:35;;;;;;;;;;;;;;;15.45;100.00;102089.81;2611011;36;20038;-65
2021/08/29 00:40:03;;;;;;;9.57;3.92;;;;;;;15.44;100.00;102087.25;2613094;36;20070;-65
2021/08/29 00:42:31;;;;;;;10.70;4.55;;;;;;;15.44;100.00;102081.81;2617492;36;20522;-67
2021/08/29 00:44:59;;;;;;;8.52;3.42;;;;;;;15.38;100.00;102078.63;2617593;36;20084;-65
2021/08/29 00:47:28;;;;;;;9.75;3.83;;;;;;;15.38;100.00;102081.34;2617450;36;20073;-65
2021/08/29 00:49:59;;;;;;;8.50;3.87;;;;;;;15.33;100.00;102086.34;2617477;36;20140;-65
2021/08/29 00:52:27;;;;;;;9.30;4.32;;;;;;;15.35;100.00;102080.78;2617351;36;20121;-67
2021/08/29 00:54:55;;;;;;;11.87;4.27;;;;;;;15.39;100.00;102082.22;2617838;36;20542;-65
2021/08/29 00:57:23;;;;;;;14.65;4.03;;;;;;;15.34;100.00;102077.22;2617406;36;20327;-65
2021/08/29 00:59:52;;;;;;;10.10;3.92;;;;;;;15.35;100.00;102078.91;2610419;31;20534;-65
2021/08/29 01:02:25;;;;;;;8.60;3.70;;;;;;;15.35;100.00;102078.91;2617357;36;20045;-65
2021/08/29 01:05:04;;;;;;;9.95;4.80;;;;;;;15.40;100.00;102073.09;2617356;36;20315;-64
2021/08/29 01:07:37;;;;;;;13.02;3.90;;;;;;;15.37;100.00;102071.53;2617864;36;20419;-64
2021/08/29 01:10:11;;;;;;;8.15;3.80;;;;;;;15.37;100.00;102076.94;2616472;36;20114;-65
2021/08/29 01:12:41;;;;;;;8.85;4.40;;;;;;;15.46;100.00;102072.53;2611025;36;20162;-64
2021/08/29 01:15:11;;;;;;;9.90;3.85;;;;;;;15.45;100.00;102072.69;2617262;31;20073;-65
2021/08/29 01:17:39;;;;;;;9.85;4.30;;;;;;;15.42;100.00;102068.38;2617023;36;20041;-66
2021/08/29 01:20:21;;;;;;;10.30;3.67;;;;;;;15.35;100.00;102062.63;2616160;36;20080;-65
2021/08/29 01:22:53;;;;;;;11.88;3.83;;;;;;;15.32;100.00;102057.50;2615652;36;20118;-65
2021/08/29 01:25:27;;;;;;;10.10;4.10;;;;;;;15.31;100.00;102069.38;2614883;31;20517;-65
2021/08/29 01:28:01;;;;;;;9.43;3.95;;;;;;;15.31;100.00;102063.94;2617214;36;20575;-65
2021/08/29 01:30:33;;;;;;;9.50;4.20;;;;;;;15.37;100.00;102065.22;2617122;36;20081;-69
2021/08/29 01:33:01;;;;;;;8.65;3.78;;;;;;;15.34;100.00;102071.81;2617173;36;20130;-68
2021/08/29 01:35:30;;;;;;;9.57;4.25;;;;;;;15.36;100.00;102064.38;2617027;36;20183;-65
2021/08/29 01:37:59;;;;;;;7.38;3.30;;;;;;;15.33;100.00;102070.06;2617372;36;20559;-68
2021/08/29 01:40:27;;;;;;;14.85;4.35;;;;;;;15.42;100.00;102063.81;2616619;31;21032;-69
2021/08/29 01:42:56;;;;;;;7.20;3.45;;;;;;;15.45;100.00;102064.56;2617215;36;20181;-65
2021/08/29 01:45:25;;;;;;;8.82;3.60;;;;;;;15.38;100.00;102072.38;2617890;31;20546;-66
2021/08/29 01:47:58;;;;;;;11.30;4.03;;;;;;;15.43;100.00;102067.41;2617421;36;20081;-65
2021/08/29 01:50:27;;;;;;;10.32;4.03;;;;;;;15.36;100.00;102069.78;2616313;36;20126;-69
2021/08/29 01:52:55;;;;;;;13.07;3.92;;;;;;;15.39;100.00;102068.66;2617003;36;20113;-65
2021/08/29 01:55:23;;;;;;;10.18;4.13;;;;;;;15.37;100.00;102068.81;2614275;36;20118;-66
2021/08/29 01:57:52;;;;;;;12.40;3.70;;;;;;;15.39;100.00;102063.25;2616891;36;20130;-64
2021/08/29 02:00:21;;;;;;;8.73;4.35;;;;;;;15.37;100.00;102074.22;2616370;36;20110;-65
2021/08/29 02:02:49;;;;;;;6.97;3.42;;;;;;;15.39;100.00;102063.25;2618090;31;20523;-65
2021/08/29 02:05:20;;;;;;;9.83;3.90;;;;;;;15.36;100.00;102069.78;2616797;31;20113;-69
2021/08/29 02:07:51;;;;;;;10.82;3.83;;;;;;;15.36;100.00;102067.09;2612359;36;20058;-67
2021/08/29 02:10:25;;;;;;;7.35;3.78;;;;;;;15.33;100.00;102071.94;2617156;36;20034;-66
2021/08/29 02:13:00;;;;;;;10.10;4.00;;;;;;;15.35;100.00;102068.06;2616925;36;20030;-65
2021/08/29 02:15:32;;;;;;;8.30;3.70;;;;;;;15.30;100.00;102072.22;2617318;36;20177;-65
2021/08/29 02:18:03;;;;;;;11.68;4.13;;;;;;;15.36;100.00;102075.22;2616832;36;20097;-68
2021/08/29 02:20:34;;;;;;;9.73;4.13;;;;;;;15.42;100.00;102073.81;2616937;36;20056;-65
2021/08/29 02:23:03;;;;;;;10.00;4.22;;;;;;;15.35;100.00;102064.50;2616599;36;20039;-65
2021/08/29 02:25:32;;;;;;;11.20;4.40;;;;;;;15.33;100.00;102070.06;2605914;36;20673;-67
2021/08/29 02:28:01;;;;;;;9.77;4.25;;;;;;;15.39;100.00;102069.50;2615868;36;20439;-65
2021/08/29 02:30:30;;;;;;;9.98;3.97;;;;;;;15.38;100.00;102065.06;2615048;36;20129;-63
2021/08/29 02:32:58;;;;;;;7.85;3.55;;;;;;;15.46;100.00;102066.25;2616374;36;20026;-67
2021/08/29 02:35:27;;;;;;;7.03;3.83;;;;;;;15.36;100.00;102063.53;2616121;36;20141;-69
2021/08/29 02:51:49;;;;;;;6.88;3.22;;;;;;;15.47;100.00;102067.97;2613531;54;20019;-65
2021/08/29 02:54:18;;;;;;;7.10;2.90;;;;;;;15.53;100.00;102059.28;2621622;36;20157;-66
2021/08/29 02:56:49;;;;;;;10.38;3.60;;;;;;;15.58;100.00;102062.44;2616175;36;20578;-66
2021/08/29 02:59:18;;;;;;;8.77;3.35;;;;;;;15.61;100.00;102064.88;2615206;36;20022;-69
2021/08/29 03:01:46;;;;;;;;;;;;;;;15.56;100.00;102058.97;2613016;36;20133;-65
2021/08/29 03:04:15;;;;;;;7.13;3.35;;;;;;;15.56;100.00;102053.56;2616719;36;19943;-65
2021/08/29 03:06:44;;;;;;;7.57;3.40;;;;;;;15.53;100.00;102053.84;2616426;31;20177;-65
2021/08/29 03:09:15;;;;;;;6.72;2.78;;;;;;;15.51;100.00;102061.28;2616007;36;20392;-64
2021/08/29 03:11:43;;;;;;;8.93;2.97;;;;;;;15.55;100.00;102051.88;2616467;36;20076;-66
2021/08/29 03:14:12;;;;;;;8.93;3.22;;;;;;;15.56;100.00;102057.16;2616277;36;20114;-68
2021/08/29 03:16:41;;;;;;;7.95;3.28;;;;;;;15.55;100.00;102047.28;2612878;36;20130;-65
2021/08/29 03:19:10;;;;;;;9.88;3.55;;;;;;;15.56;100.00;102061.69;2615975;36;20098;-68
2021/08/29 03:21:39;;;;;;;7.82;3.35;;;;;;;15.56;100.00;102049.00;2616240;36;20162;-68
2021/08/29 03:24:15;;;;;;;15.50;3.70;;;;;;;15.60;100.00;102052.28;2615705;36;20077;-65
2021/08/29 03:26:46;;;;;;;9.20;3.08;;;;;;;15.56;100.00;102051.72;2596269;36;20624;-65
2021/08/29 03:29:15;;;;;;;13.00;3.05;;;;;;;15.51;100.00;102056.69;2615128;36;20161;-65
2021/08/29 03:31:44;;;;;;;10.63;3.13;;;;;;;15.59;100.00;102050.56;2607904;36;20041;-67
2021/08/29 03:34:15;;;;;;;11.02;3.40;;;;;;;15.55;100.00;102050.00;2616622;31;20038;-65
2021/08/29 03:36:45;;;;;;;11.60;3.03;;;;;;;15.62;100.00;102042.16;2615064;36;20023;-64
2021/08/29 03:39:14;;;;;;;7.57;2.58;;;;;;;15.58;100.00;102054.28;2614525;36;20130;-69
2021/08/29 03:41:47;;;;;;;16.55;3.47;;;;;;;15.53;100.00;102052.00;2616598;36;20086;-65
2021/08/29 03:44:17;;;;;;;9.38;3.03;;;;;;;15.50;100.00;102046.88;2607934;36;20162;-65
2021/08/29 03:46:45;;;;;;;10.75;2.95;;;;;;;15.49;100.00;102044.25;2612888;31;20110;-65
2021/08/29 03:49:14;;;;;;;10.52;3.50;;;;;;;15.56;100.00;102037.28;2616924;36;20106;-65
2021/08/29 03:51:44;;;;;;;9.93;3.28;;;;;;;15.61;100.00;102040.44;2607978;36;20206;-66
2021/08/29 03:54:15;;;;;;;12.60;3.63;;;;;;;15.50;100.00;102027.88;2614228;36;20868;-65
2021/08/29 03:56:43;;;;;;;12.95;3.42;;;;;;;15.49;100.00;102025.25;2612079;36;20026;-65
2021/08/29 03:59:15;;;;;;;9.05;3.45;;;;;;;15.54;100.00;102023.00;2617300;36;20158;-65
2021/08/29 04:01:43;;;;;;;9.65;2.95;;;;;;;15.58;100.00;102019.00;2617311;36;20050;-66
2021/08/29 04:04:12;;;;;;;13.52;3.33;;;;;;;15.58;100.00;102019.00;2616801;36;20150;-67
2021/08/29 04:06:41;;;;;;;11.43;3.33;;;;;;;15.60;100.00;102017.00;2616800;36;20523;-65
2021/08/29 04:09:10;;;;;;;15.77;3.60;;;;;;;15.62;100.00;102017.75;2610881;36;20035;-65
2021/08/29 04:11:40;;;;;;;13.18;3.50;;;;;;;15.56;100.00;102021.88;2617494;36;20027;-65
2021/08/29 04:14:08;;;;;;;15.48;3.72;;;;;;;15.56;100.00;102015.56;2617359;31;20105;-65
2021/08/29 04:16:41;;;;;;;12.87;3.30;;;;;;;15.58;100.00;102013.59;2613631;36;20669;-65
2021/08/29 04:19:10;;;;;;;11.93;3.60;;;;;;;15.56;100.00;102011.03;2616573;36;20122;-65
2021/08/29 04:21:39;;;;;;;;;;;;;;;15.54;100.00;102017.56;2617055;36;20599;-66
2021/08/29 04:24:08;;;;;;;12.23;4.03;;;;;;;15.54;100.00;102013.00;2616804;36;19942;-69
2021/08/29 04:26:36;;;;;;;;;;;;;;;15.52;100.00;102016.88;2616024;36;20026;-69
2021/08/29 04:29:05;;;;;;;10.70;3.33;;;;;;;15.51;100.00;102024.13;2616067;36;19942;-67
2021/08/29 04:31:35;;;;;;;13.95;3.75;;;;;;;15.50;100.00;102014.31;2616586;31;20118;-69
2021/08/29 04:34:08;;;;;;;12.70;3.47;;;;;;;15.50;100.00;102011.59;2615843;31;20499;-66
2021/08/29 04:36:38;;;;;;;16.45;3.67;;;;;;;15.48;100.00;102013.56;2617183;36;20038;-64
2021/08/29 04:39:08;;;;;;;11.93;3.10;;;;;;;15.48;100.00;102012.72;2617278;36;20088;-65
2021/08/29 04:41:37;;;;;;;12.05;3.47;;;;;;;15.43;100.00;102010.44;2617272;36;20046;-65
2021/08/29 04:44:07;;;;;;;10.35;3.28;;;;;;;15.46;100.00;102015.56;2605453;36;20126;-66
2021/08/29 04:46:36;;;;;;;15.07;3.53;;;;;;;15.47;100.00;102019.13;2617329;36;20511;-65
2021/08/29 04:49:07;;;;;;;16.03;3.63;;;;;;;15.47;100.00;102019.13;2605515;36;20159;-65
2021/08/29 04:51:36;;;;;;;8.60;3.60;;;;;;;15.45;100.00;102022.00;2616768;36;20459;-67
2021/08/29 04:54:05;;;;;;;13.50;3.60;;;;;;;15.47;100.00;102021.84;2611469;36;20026;-65
2021/08/29 04:56:33;;;;;;;11.45;3.10;;;;;;;15.51;100.00;102028.72;2616807;36;20468;-67
2021/08/29 04:59:01;;;;;;;17.57;3.63;;;;;;;15.50;100.00;102025.16;2617235;36;20027;-65
2021/08/29 05:01:31;;;;;;;13.40;3.70;;;;;;;15.53;100.00;102029.41;2616492;36;20511;-67
2021/08/29 05:03:59;;;;;;;12.43;3.50;;;;;;;15.61;100.00;102032.31;2616808;36;20549;-68
2021/08/29 05:06:30;;;;;;;9.13;3.92;;;;;;;15.62;100.00;102019.59;2617175;36;20142;-64
2021/08/29 05:11:45;;;;;;;22.27;3.95;;;;;;;15.57;100.00;102022.72;2615704;36;20029;-65
2021/08/29 05:14:13;;;;;;;;;;;;;;;15.63;100.00;102027.59;2613756;36;20030;-68
2021/08/29 05:16:41;;;;;;;12.63;3.67;;;;;;;15.57;100.00;102020.00;2616079;36;20030;-66
2021/08/29 05:21:57;;;;;;;13.30;3.53;;;;;;;15.58;100.00;102019.00;2613779;54;20057;-65
2021/08/29 05:24:26;;;;;;;14.90;4.18;;;;;;;15.56;100.00;102027.31;2617604;36;20122;-66
2021/08/29 05:26:54;;;;;;;12.18;3.95;;;;;;;15.55;100.00;102024.72;2617081;36;20158;-66
2021/08/29 05:29:22;;;;;;;13.10;3.20;;;;;;;15.58;100.00;102019.00;2617751;31;20468;-66
2021/08/29 05:31:50;;;;;;;13.77;3.78;;;;;;;15.56;100.00;102027.31;2616916;36;20125;-65
2021/08/29 05:34:18;;;;;;;10.90;3.45;;;;;;;15.58;100.00;102019.00;2614712;36;20093;-65
2021/08/29 05:36:47;;;;;;;12.83;3.50;;;;;;;15.58;100.00;102014.44;2618134;31;20477;-65
2021/08/29 05:39:17;;;;;;;10.98;3.25;;;;;;;15.66;100.00;102016.44;2617286;31;20522;-65
2021/08/29 05:41:46;;;;;;;9.73;3.20;;;;;;;15.67;100.00;102001.03;2617081;36;20158;-67
2021/08/29 05:44:15;;;;;;;11.20;3.60;;;;;;;15.62;100.00;102004.19;2615181;36;20030;-66
2021/08/29 05:46:43;;;;;;;13.77;3.70;;;;;;;15.66;100.00;102011.00;2617356;36;20077;-65
2021/08/29 05:49:11;;;;;;;14.50;3.65;;;;;;;15.70;100.00;102007.03;2617166;36;20034;-66
2021/08/29 05:54:10;;;;;;;10.43;3.05;;;;;;;15.64;100.00;102002.16;2611558;36;21533;-65
2021/08/29 05:56:43;;;;;;;10.70;3.10;;;;;;;15.71;100.00;102005.19;2610671;36;20073;-67
2021/08/29 05:59:12;;;;;;;14.18;3.25;;;;;;;15.72;100.00;102009.59;2615229;36;20023;-65
2021/08/29 06:01:40;;;;;;;13.80;3.58;;;;;;;15.71;100.00;102002.47;2616759;36;20080;-64
2021/08/29 06:04:08;;;;;;;8.63;2.75;;;;;;;15.72;100.00;102007.75;2606732;36;20509;-66
2021/08/29 06:06:36;;;;;;;14.10;3.38;;;;;;;15.71;100.00;102008.75;2617117;36;20068;-65
2021/08/29 06:09:06;;;;;;;15.75;3.40;;;;;;;15.70;100.00;102006.19;2616955;36;20134;-65
2021/08/29 06:11:35;;;;;;;14.00;3.45;;;;;;;15.76;100.00;102006.44;2616959;36;20077;-65
2021/08/29 06:14:14;;;;;;;12.13;2.97;;;;;;;15.76;100.00;101995.59;2617508;31;20162;-67
2021/08/29 06:16:42;;;;;;;13.25;2.85;;;;;;;15.75;100.00;101999.31;2616649;36;20038;-65
2021/08/29 06:19:10;;;;;;;12.00;3.25;;;;;;;15.79;100.00;102001.78;2617700;31;20484;-65
2021/08/29 06:21:38;;;;;;;13.18;3.15;;;;;;;15.74;100.00;101997.59;2616924;36;20034;-65
2021/08/29 06:24:07;;;;;;;10.85;3.30;;;;;;;15.78;100.00;101995.47;2617136;36;20093;-66
2021/08/29 06:26:35;;;;;;;11.80;3.50;;;;;;;15.78;100.00;101992.75;2613720;36;20033;-65
2021/08/29 06:29:06;;;;;;;11.25;3.35;;;;;;;15.78;100.00;101992.75;2616552;36;20050;-66
2021/08/29 06:31:34;;;;;;;13.90;3.55;;;;;;;15.72;100.00;101988.75;2616763;36;20076;-66
2021/08/29 06:34:02;;;;;;;11.10;2.97;;;;;;;15.84;100.00;101981.34;2616581;36;20078;-65
2021/08/29 06:36:30;;;;;;;11.73;3.83;;;;;;;15.82;100.00;101986.06;2617230;36;20054;-65
2021/08/29 06:38:58;;;;;;;14.33;3.10;;;;;;;15.86;100.00;101994.78;2616621;36;20030;-65
2021/08/29 06:41:27;;;;;;;8.52;3.20;;;;;;;15.88;100.00;101995.50;2616252;36;20154;-68
2021/08/29 06:43:55;;;;;;;8.93;3.47;;;;;;;15.94;100.00;101992.19;2616668;36;20057;-67
2021/08/29 06:46:26;;;;;;;11.45;3.42;;;;;;;15.91;100.00;101989.78;2616446;36;20598;-68
2021/08/29 06:48:54;;;;;;;10.00;3.70;;;;;;;15.88;100.00;101988.19;2616879;36;20084;-67
2021/08/29 06:51:22;;;;;;;12.68;3.42;;;;;;;15.87;100.00;101985.63;2616824;36;20122;-67
2021/08/29 06:53:50;;;;;;;11.90;3.03;;;;;;;15.88;100.00;101990.06;2616599;36;20122;-66
2021/08/29 06:56:19;;;;;;;14.27;3.87;;;;;;;16.00;100.00;101991.63;2615355;36;20049;-66
2021/08/29 06:58:47;;;;;;;13.48;3.20;;;;;;;15.99;100.00;101986.31;2616905;36;20038;-68
2021/08/29 07:01:15;;;;;;;13.15;3.85;;;;;;;16.01;100.00;102004.19;2616740;36;20121;-66
2021/08/29 07:03:46;;;;;;;11.20;3.20;;;;;;;16.00;100.00;102005.19;2616430;36;20118;-67
2021/08/29 07:06:14;;;;;;;14.02;3.63;;;;;;;15.93;100.00;101998.66;2616106;36;20114;-68
2021/08/29 07:08:42;;;;;;;15.00;3.88;;;;;;;15.94;100.00;102019.34;2617141;36;20618;-66
2021/08/29 07:11:10;;;;;;;12.52;3.35;;;;;;;15.87;100.00;102008.22;2616744;36;20102;-67
2021/08/29 07:13:38;;;;;;;16.10;4.30;;;;;;;15.85;100.00;102010.19;2617113;36;20077;-71
2021/08/29 07:16:07;;;;;;;12.57;3.58;;;;;;;15.89;100.00;102006.22;2616073;36;20035;-67
2021/08/29 07:18:35;;;;;;;11.25;3.53;;;;;;;15.87;100.00;102007.34;2615439;36;20185;-66
2021/08/29 07:21:06;;;;;;;11.70;3.40;;;;;;;15.83;100.00;102004.06;2612309;36;20106;-67
2021/08/29 07:23:34;;;;;;;13.93;3.25;;;;;;;15.75;100.00;102009.31;2616523;36;20114;-66
2021/08/29 07:26:02;;;;;;;10.53;3.43;;;;;;;15.79;100.00;102008.06;2616840;36;20173;-68
2021/08/29 07:28:31;;;;;;;13.88;3.60;;;;;;;15.87;100.00;102001.91;2616503;36;20138;-67
2021/08/29 07:33:31;;;;;;;11.50;3.33;;;;;;;15.77;100.00;102002.75;2615062;36;20030;-69
2021/08/29 07:35:59;;;;;;;11.15;3.67;;;;;;;15.82;100.00;102006.94;2616243;36;20030;-68
2021/08/29 07:38:30;;;;;;;13.13;3.28;;;;;;;15.90;100.00;102009.75;2616474;36;20117;-70
2021/08/29 07:40:58;;;;;;;15.75;3.85;;;;;;;15.86;100.00;102005.66;2610619;36;20034;-67
2021/08/29 07:43:26;;;;;;;14.93;4.00;;;;;;;15.82;100.00;102010.50;2616647;36;20062;-66
2021/08/29 07:45:54;;;;;;;13.50;3.92;;;;;;;15.86;100.00;102005.66;2616131;36;20100;-70
2021/08/29 07:48:23;;;;;;;11.75;3.42;;;;;;;15.81;100.00;102007.91;2616731;36;20154;-68
2021/08/29 07:50:51;;;;;;;13.73;4.25;;;;;;;15.69;100.00;101999.03;2616636;36;20034;-66
2021/08/29 07:53:19;;;;;;;8.50;3.10;;;;;;;15.62;100.00;101998.75;2616500;36;20034;-66
2021/08/29 07:55:50;;;;;;;15.05;4.03;;;;;;;15.60;100.00;101998.00;2616313;36;20093;-67
2021/08/29 07:58:18;;;;;;;14.68;3.28;;;;;;;15.55;100.00;102003.03;2616314;36;20051;-67
2021/08/29 08:00:47;;;;;;;14.20;3.73;;;;;;;15.48;100.00;102008.13;2616441;36;20114;-66
2021/08/29 08:03:15;;;;;;;10.73;3.45;;;;;;;15.48;100.00;102002.72;2616327;36;20034;-65
2021/08/29 08:05:44;;;;;;;9.52;3.28;;;;;;;15.55;100.00;101998.44;2615924;36;20578;-67
2021/08/29 08:08:12;;;;;;;14.87;3.70;;;;;;;15.51;100.00;101997.00;2616355;36;20049;-68
2021/08/29 08:10:40;;;;;;;13.40;3.60;;;;;;;15.46;100.00;101995.69;2616974;36;20085;-66
2021/08/29 08:13:11;;;;;;;9.15;3.40;;;;;;;15.36;100.00;101993.00;2616477;31;20114;-68
2021/08/29 08:15:39;;;;;;;10.55;3.47;;;;;;;15.41;100.00;102002.44;2616619;36;20591;-66
2021/08/29 08:18:07;;;;;;;11.63;4.20;;;;;;;15.39;100.00;101995.41;2617336;36;20089;-67
2021/08/29 08:20:36;;;;;;;12.05;3.40;;;;;;;15.46;100.00;101990.28;2617446;36;20027;-70
2021/08/29 08:23:04;;;;;;;11.40;3.08;;;;;;;15.30;100.00;101988.13;2617360;31;20114;-67
2021/08/29 08:25:32;;;;;;;11.83;3.20;;;;;;;15.42;100.00;101989.72;2616272;36;20057;-66
2021/08/29 08:28:01;;;;;;;11.43;3.20;;;;;;;15.48;100.00;101986.44;2615603;31;20629;-68
2021/08/29 08:30:31;;;;;;;12.38;3.35;;;;;;;15.64;100.00;101985.88;2616412;36;20038;-67
2021/08/29 08:33:00;;;;;;;14.93;4.18;;;;;;;15.73;100.00;101984.16;2617037;36;20171;-68
2021/08/29 08:35:28;;;;;;;18.13;3.47;;;;;;;15.71;100.00;101983.47;2617269;36;20539;-70
2021/08/29 08:37:57;;;;;;;12.07;3.15;;;;;;;15.71;100.00;101983.47;2617698;36;20046;-70
2021/08/29 08:40:25;;;;;;;12.82;3.50;;;;;;;15.76;100.00;101983.88;2618030;31;20438;-68
2021/08/29 08:42:54;;;;;;;12.82;3.58;;;;;;;15.77;100.00;101986.44;2617137;36;20113;-67
2021/08/29 08:45:22;;;;;;;14.82;3.65;;;;;;;15.63;100.00;101978.72;2617024;36;20027;-68
2021/08/29 08:47:53;;;;;;;14.25;3.80;;;;;;;15.71;100.00;101992.47;2617439;31;20023;-70
2021/08/29 08:50:22;;;;;;;15.68;3.72;;;;;;;15.71;100.00;101988.91;2616754;36;20059;-66
2021/08/29 08:52:52;;;;;;;19.08;3.40;;;;;;;15.59;100.00;101990.88;2617085;36;20081;-68
2021/08/29 08:55:20;;;;;;;;;;;;;;;15.66;100.00;101994.72;2617214;36;20026;-69
2021/08/29 08:57:49;;;;;;;14.55;3.83;;;;;;;15.61;100.00;101991.59;2617131;36;19993;-66
2021/08/29 09:00:17;;;;;;;;;;;;;;;15.61;100.00;101980.75;2617283;36;20027;-67
2021/08/29 09:02:46;;;;;;;18.00;4.57;;;;;;;15.59;100.00;101985.44;2616660;36;19984;-67
2021/08/29 09:05:16;;;;;;;19.73;4.30;;;;;;;15.48;100.00;101985.59;2616667;36;20026;-67
2021/08/29 09:07:45;;;;;;;15.60;4.35;;;;;;;15.45;100.00;101980.44;2617461;31;20069;-66
2021/08/29 09:10:13;;;;;;;9.90;3.63;;;;;;;15.55;100.00;101986.75;2617061;36;20046;-66
2021/08/29 09:12:57;;;;;;;13.98;3.90;;;;;;;15.53;100.00;101980.56;2617672;36;20033;-66
2021/08/29 09:15:25;;;;;;;18.25;5.13;;;;;;;15.55;100.00;101986.75;2616895;36;20053;-69
2021/08/29 09:17:53;;;;;;;20.57;5.10;;;;;;;15.50;100.00;101989.00;2617237;31;20038;-66
2021/08/29 09:20:27;;;;;;;24.47;4.47;;;;;;;15.39;100.00;101984.56;2617379;36;20478;-67
2021/08/29 09:22:57;;;;;;;19.70;5.00;;;;;;;15.41;100.00;101986.16;2617017;36;20126;-66
2021/08/29 09:25:27;;;;;;;17.40;5.07;;;;;;;15.42;100.00;101979.72;2616997;36;20030;-66
2021/08/29 09:27:57;;;;;;;15.02;4.65;;;;;;;15.39;100.00;101971.00;2616626;36;20081;-65
2021/08/29 09:30:28;;;;;;;17.30;5.38;;;;;;;15.32;100.00;101978.84;2616802;31;20109;-66
2021/08/29 09:32:59;;;;;;;20.70;4.60;;;;;;;15.29;100.00;101975.56;2617077;36;20035;-68
2021/08/29 09:35:31;;;;;;;17.08;5.28;;;;;;;15.29;100.00;101965.56;2616442;36;20131;-67
2021/08/29 09:38:01;;;;;;;13.90;4.90;;;;;;;15.30;100.00;101978.13;2616942;36;20033;-66
2021/08/29 09:40:29;;;;;;;;;;;;;;;15.30;100.00;101977.28;2616389;31;20531;-67
2021/08/29 09:43:00;;;;;;;13.15;4.80;;;;;;;15.37;100.00;101973.84;2616544;36;20088;-69
2021/08/29 09:45:31;;;;;;;19.73;5.15;;;;;;;15.48;100.00;101980.16;2616801;36;20081;-67
2021/08/29 09:48:05;;;;;;;14.60;4.45;;;;;;;15.49;100.00;101974.59;2616456;36;20128;-67
2021/08/29 09:50:37;;;;;;;17.55;5.53;;;;;;;15.37;100.00;101981.13;2616672;36;20077;-66
2021/08/29 09:53:07;;;;;;;14.32;5.10;;;;;;;15.47;100.00;101984.72;2615816;36;20583;-68
2021/08/29 09:55:38;;;;;;;18.15;5.93;;;;;;;15.36;100.00;101985.69;2616929;36;20030;-66
2021/08/29 09:58:23;;;;;;;10.30;4.78;;;;;;;15.47;100.00;101981.16;2616375;36;20054;-66
2021/08/29 10:01:11;;;;;;;20.40;5.88;;;;;;;15.57;100.00;101982.00;2616898;36;20450;-66
2021/08/29 10:03:41;;;;;;;14.20;5.10;;;;;;;15.54;100.00;101976.88;2616236;36;20029;-66
2021/08/29 10:06:21;;;;;;;16.58;5.50;;;;;;;15.50;100.00;101979.03;2613422;36;20046;-66
2021/08/29 10:08:50;;;;;;;14.60;5.57;;;;;;;15.44;100.00;101979.56;2615461;36;20869;-66
2021/08/29 10:11:20;;;;;;;14.13;5.55;;;;;;;15.51;100.00;101978.00;2615591;36;20027;-66
2021/08/29 10:13:48;;;;;;;;;;;;;;;15.59;100.00;101982.72;2615825;36;20034;-65
2021/08/29 10:16:18;;;;;;;18.40;6.28;;;;;;;15.57;100.00;101973.88;2615634;36;20042;-66
2021/08/29 10:18:50;;;;;;;17.45;6.38;;;;;;;15.59;100.00;101980.00;2614298;36;20023;-65
2021/08/29 10:21:23;;;;;;;17.35;6.03;;;;;;;15.58;100.00;101971.03;2615911;31;20114;-65
2021/08/29 10:23:53;;;;;;;18.40;6.85;;;;;;;15.57;100.00;101973.88;2615403;36;20450;-65
2021/08/29 10:26:23;;;;;;;18.95;5.72;;;;;;;15.61;100.00;101969.88;2615473;36;20543;-66
2021/08/29 10:28:54;;;;;;;23.30;8.15;;;;;;;15.68;100.00;101959.31;2614978;36;20049;-66
2021/08/29 10:31:31;;;;;;;28.27;7.90;;;;;;;15.74;100.00;101972.31;2615413;36;20431;-68
2021/08/29 10:34:00;;;;;;;18.55;7.25;;;;;;;15.73;100.00;101971.44;2615642;36;20126;-65
2021/08/29 10:36:31;;;;;;;18.73;5.53;;;;;;;15.81;100.00;101964.47;2616108;36;20045;-64
2021/08/29 10:38:59;;;;;;;13.63;5.22;;;;;;;15.74;100.00;101972.31;2616169;36;20042;-67
2021/08/29 10:41:29;;;;;;;15.50;5.63;;;;;;;15.88;100.00;101971.06;2615828;31;20085;-65
2021/08/29 10:43:57;;;;;;;18.38;6.38;;;;;;;15.99;100.00;101962.75;2615234;36;20121;-65
2021/08/29 10:46:26;;;;;;;13.40;5.77;;;;;;;15.82;100.00;101958.91;2615562;36;20035;-68
2021/08/29 10:48:56;;;;;;;18.27;6.05;;;;;;;15.83;100.00;101957.06;2616748;31;20137;-66
2021/08/29 10:51:28;;;;;;;15.07;5.10;;;;;;;15.80;100.00;101957.34;2612070;36;20122;-65
2021/08/29 10:54:00;;;;;;;18.25;6.03;;;;;;;15.84;100.00;101953.34;2612590;31;20031;-65
2021/08/29 10:56:34;;;;;;;22.45;6.93;;;;;;;15.73;100.00;101954.31;2615412;36;20153;-65
2021/08/29 10:59:28;;;;;;;14.45;5.28;;;;;;;15.83;100.00;101962.50;2614813;36;20599;-65
2021/08/29 11:02:11;;;;;;;16.55;5.82;;;;;;;15.88;100.00;101957.47;2614977;36;20069;-65
2021/08/29 11:05:00;;;;;;;15.15;5.75;;;;;;;15.91;100.00;101949.03;2615205;36;20035;-65
2021/08/29 11:07:48;;;;;;;18.55;6.63;;;;;;;16.08;100.00;101951.03;2614968;36;20110;-68
2021/08/29 11:10:49;;;;;;;14.25;6.00;;;;;;;16.11;100.00;101950.72;2614983;36;20046;-63
2021/08/29 11:13:43;;;;;;;15.20;7.80;;;;;;;16.20;100.00;101940.00;2614762;36;20047;-66
2021/08/29 11:16:23;;;;;;;16.48;6.47;;;;;;;16.28;100.00;101943.69;2608244;36;20031;-65
2021/08/29 11:19:13;;;;;;;15.98;5.55;;;;;;;16.24;100.00;101938.72;2609006;36;20764;-68
2021/08/29 11:22:17;;;;;;;12.20;5.22;;;;;;;16.35;100.00;101941.22;2613915;36;20034;-65
2021/08/29 11:24:54;;;;;;;16.60;5.32;;;;;;;16.32;100.00;101944.25;2613685;31;20118;-66
2021/08/29 11:27:53;;;;;;;13.50;4.85;;;;;;;16.26;100.00;101937.53;2614873;36;20528;-66
2021/08/29 11:30:26;;;;;;;12.20;6.18;;;;;;;16.33;100.00;101948.69;2613755;36;20029;-69
2021/08/29 11:32:57;;;;;;;12.60;5.45;;;;;;;16.45;100.00;101947.50;2613811;36;20030;-66
2021/08/29 11:35:31;;;;;;;9.85;5.57;;;;;;;16.48;100.00;101945.50;2613180;36;20114;-66
2021/08/29 11:38:12;;;;;;;8.13;5.25;;;;;;;16.76;100.00;101949.94;2615770;36;20540;-66
2021/08/29 11:40:56;;;;;;;11.13;5.38;;;;;;;16.70;100.00;101941.56;2615394;36;20035;-68
2021/08/29 11:43:42;;;;;;;13.20;5.50;;;;;;;16.94;100.00;101943.75;2616419;36;20023;-66
2021/08/29 11:46:18;;;;;;;10.63;5.18;;;;;;;16.92;100.00;101943.06;2616091;36;20603;-68
2021/08/29 11:51:15;;;;;;;;;;;;;;;17.20;100.00;101940.31;2615179;36;20046;-66
2021/08/29 11:53:50;;;;;;;7.65;4.65;;;;;;;17.14;100.00;101936.34;2617201;36;20062;-65
2021/08/29 11:56:20;;;;;;;9.85;4.60;;;;;;;17.08;100.00;101926.91;2617519;31;20129;-65